Dyersville, Iowa
Current Conditions -  °F | °C
As of 7:15 PM on Sunday 21 Dec 2014 (Local Time) from KMXO Reporting Station
Overcast Overcast  
Wind Chill: 29°   Ceiling: 2200
Heat Index: 37°   Visibility: 8mi
Dew Point: 36°   Wind: 15mph
Humidity: 93%   Direction: 140°SE
Pressure: 29.91"   Gusts: 22mph
Location:  42.48°N, 91.12°W
Report Text: KMXO 220115Z AUTO 14013G19KT 8SM SCT014 OVC022 03/02 A2991 RMK AO2
Loading
Personal Weather Stations






























Interactive Weather Map New forecast layout! Learn more

10-Day Weather Forecast

Advertisements
Track Severe Weather on mobile